sensor_id;sensor_type;location;lat;lon;timestamp;pressure;altitude;pressure_sealevel;temperature;humidity
76819;BME280;65772;51.096;17.006;2024-02-21T00:02:25;100920.34;;;9.69;64.55
76819;BME280;65772;51.096;17.006;2024-02-21T00:04:55;100919.69;;;9.66;64.73
76819;BME280;65772;51.096;17.006;2024-02-21T00:07:26;100921.58;;;9.62;64.72
76819;BME280;65772;51.096;17.006;2024-02-21T00:09:57;100920.05;;;9.58;64.79
76819;BME280;65772;51.096;17.006;2024-02-21T00:12:28;100918.18;;;9.54;65.09
76819;BME280;65772;51.096;17.006;2024-02-21T00:14:59;100918.60;;;9.51;64.88
76819;BME280;65772;51.096;17.006;2024-02-21T00:17:29;100913.37;;;9.49;65.13
76819;BME280;65772;51.096;17.006;2024-02-21T00:20:00;100911.34;;;9.49;65.03
76819;BME280;65772;51.096;17.006;2024-02-21T00:22:31;100912.69;;;9.49;65.04
76819;BME280;65772;51.096;17.006;2024-02-21T00:25:03;100908.94;;;9.49;65.11
76819;BME280;65772;51.096;17.006;2024-02-21T00:27:34;100906.48;;;9.47;64.86
76819;BME280;65772;51.096;17.006;2024-02-21T00:30:06;100905.91;;;9.46;65.07
76819;BME280;65772;51.096;17.006;2024-02-21T00:32:36;100907.09;;;9.45;65.16
76819;BME280;65772;51.096;17.006;2024-02-21T00:35:08;100902.27;;;9.45;64.94
76819;BME280;65772;51.096;17.006;2024-02-21T00:37:39;100902.09;;;9.45;65.07
76819;BME280;65772;51.096;17.006;2024-02-21T00:40:10;100898.50;;;9.44;65.08
76819;BME280;65772;51.096;17.006;2024-02-21T00:42:41;100899.56;;;9.45;65.05
76819;BME280;65772;51.096;17.006;2024-02-21T00:45:12;100892.69;;;9.44;64.79
76819;BME280;65772;51.096;17.006;2024-02-21T00:47:43;100891.41;;;9.41;65.24
76819;BME280;65772;51.096;17.006;2024-02-21T00:50:14;100889.42;;;9.39;64.58
76819;BME280;65772;51.096;17.006;2024-02-21T00:52:44;100888.19;;;9.38;64.75
76819;BME280;65772;51.096;17.006;2024-02-21T00:55:15;100883.48;;;9.36;65.08
76819;BME280;65772;51.096;17.006;2024-02-21T00:57:46;100880.73;;;9.35;65.21
76819;BME280;65772;51.096;17.006;2024-02-21T01:00:18;100883.87;;;9.37;64.94
76819;BME280;65772;51.096;17.006;2024-02-21T01:02:49;100883.06;;;9.38;65.26
76819;BME280;65772;51.096;17.006;2024-02-21T01:05:22;100879.08;;;9.40;65.05
76819;BME280;65772;51.096;17.006;2024-02-21T01:07:53;100876.56;;;9.41;64.93
76819;BME280;65772;51.096;17.006;2024-02-21T01:10:23;100872.02;;;9.42;65.14
76819;BME280;65772;51.096;17.006;2024-02-21T01:12:54;100872.06;;;9.44;64.67
76819;BME280;65772;51.096;17.006;2024-02-21T01:15:25;100869.00;;;9.44;65.07
76819;BME280;65772;51.096;17.006;2024-02-21T01:17:56;100866.92;;;9.43;64.93
76819;BME280;65772;51.096;17.006;2024-02-21T01:20:27;100869.39;;;9.45;65.23
76819;BME280;65772;51.096;17.006;2024-02-21T01:22:58;100865.09;;;9.44;65.28
76819;BME280;65772;51.096;17.006;2024-02-21T01:25:29;100862.84;;;9.43;65.10
76819;BME280;65772;51.096;17.006;2024-02-21T01:27:59;100861.44;;;9.42;64.92
76819;BME280;65772;51.096;17.006;2024-02-21T01:30:30;100859.45;;;9.39;65.45
76819;BME280;65772;51.096;17.006;2024-02-21T01:33:01;100856.08;;;9.40;65.46
76819;BME280;65772;51.096;17.006;2024-02-21T01:35:32;100853.52;;;9.40;65.79
76819;BME280;65772;51.096;17.006;2024-02-21T01:38:02;100849.44;;;9.44;66.02
76819;BME280;65772;51.096;17.006;2024-02-21T01:40:34;100848.29;;;9.49;66.05
76819;BME280;65772;51.096;17.006;2024-02-21T01:43:14;100845.86;;;9.52;65.99
76819;BME280;65772;51.096;17.006;2024-02-21T01:45:48;100844.32;;;9.52;66.08
76819;BME280;65772;51.096;17.006;2024-02-21T01:48:20;100843.04;;;9.50;66.11
76819;BME280;65772;51.096;17.006;2024-02-21T01:50:53;100841.01;;;9.50;66.24
76819;BME280;65772;51.096;17.006;2024-02-21T01:53:23;100836.17;;;9.53;66.60
76819;BME280;65772;51.096;17.006;2024-02-21T01:55:56;100833.41;;;9.52;66.44
76819;BME280;65772;51.096;17.006;2024-02-21T01:58:27;100828.84;;;9.53;66.88
76819;BME280;65772;51.096;17.006;2024-02-21T02:01:00;100825.56;;;9.52;66.48
76819;BME280;65772;51.096;17.006;2024-02-21T02:03:32;100821.38;;;9.49;66.69
76819;BME280;65772;51.096;17.006;2024-02-21T02:06:04;100816.59;;;9.49;66.66
76819;BME280;65772;51.096;17.006;2024-02-21T02:08:35;100811.55;;;9.51;66.71
76819;BME280;65772;51.096;17.006;2024-02-21T02:11:06;100807.64;;;9.51;66.99
76819;BME280;65772;51.096;17.006;2024-02-21T02:13:37;100800.50;;;9.52;66.39
76819;BME280;65772;51.096;17.006;2024-02-21T02:16:09;100794.23;;;9.52;66.74
76819;BME280;65772;51.096;17.006;2024-02-21T02:18:39;100796.66;;;9.54;66.79
76819;BME280;65772;51.096;17.006;2024-02-21T02:21:13;100794.93;;;9.53;66.81
76819;BME280;65772;51.096;17.006;2024-02-21T02:23:50;100793.48;;;9.51;66.82
76819;BME280;65772;51.096;17.006;2024-02-21T02:26:21;100793.39;;;9.49;66.30
76819;BME280;65772;51.096;17.006;2024-02-21T02:28:52;100789.32;;;9.49;66.80
76819;BME280;65772;51.096;17.006;2024-02-21T02:31:23;100790.23;;;9.50;66.49
76819;BME280;65772;51.096;17.006;2024-02-21T02:33:54;100786.36;;;9.51;66.72
76819;BME280;65772;51.096;17.006;2024-02-21T02:36:24;100781.92;;;9.51;66.26
76819;BME280;65772;51.096;17.006;2024-02-21T02:38:55;100784.44;;;9.51;66.57
76819;BME280;65772;51.096;17.006;2024-02-21T02:41:26;100782.59;;;9.51;66.22
76819;BME280;65772;51.096;17.006;2024-02-21T02:43:56;100779.06;;;9.52;66.19
76819;BME280;65772;51.096;17.006;2024-02-21T02:46:27;100781.48;;;9.54;66.18
76819;BME280;65772;51.096;17.006;2024-02-21T02:48:58;100781.14;;;9.53;66.16
76819;BME280;65772;51.096;17.006;2024-02-21T02:51:29;100776.96;;;9.51;66.17
76819;BME280;65772;51.096;17.006;2024-02-21T02:54:00;100771.21;;;9.48;66.18
76819;BME280;65772;51.096;17.006;2024-02-21T02:56:30;100773.36;;;9.47;66.14
76819;BME280;65772;51.096;17.006;2024-02-21T02:59:01;100770.23;;;9.45;66.34
76819;BME280;65772;51.096;17.006;2024-02-21T03:01:36;100770.52;;;9.44;65.93
76819;BME280;65772;51.096;17.006;2024-02-21T03:04:08;100767.12;;;9.44;66.13
76819;BME280;65772;51.096;17.006;2024-02-21T03:06:38;100765.92;;;9.44;66.16
76819;BME280;65772;51.096;17.006;2024-02-21T03:09:09;100763.55;;;9.44;65.92
76819;BME280;65772;51.096;17.006;2024-02-21T03:11:39;100765.92;;;9.44;66.18
76819;BME280;65772;51.096;17.006;2024-02-21T03:14:12;100767.26;;;9.43;65.93
76819;BME280;65772;51.096;17.006;2024-02-21T03:16:43;100760.77;;;9.44;65.66
76819;BME280;65772;51.096;17.006;2024-02-21T03:19:13;100759.61;;;9.44;66.02
76819;BME280;65772;51.096;17.006;2024-02-21T03:21:44;100757.61;;;9.45;65.72
76819;BME280;65772;51.096;17.006;2024-02-21T03:24:15;100756.41;;;9.45;65.95
76819;BME280;65772;51.096;17.006;2024-02-21T03:26:46;100755.00;;;9.44;65.88
76819;BME280;65772;51.096;17.006;2024-02-21T03:29:17;100752.64;;;9.44;65.74
76819;BME280;65772;51.096;17.006;2024-02-21T03:31:48;100748.52;;;9.44;65.83
76819;BME280;65772;51.096;17.006;2024-02-21T03:34:19;100748.46;;;9.42;65.80
76819;BME280;65772;51.096;17.006;2024-02-21T03:36:49;100747.02;;;9.40;65.73
76819;BME280;65772;51.096;17.006;2024-02-21T03:39:21;100745.45;;;9.39;65.41
76819;BME280;65772;51.096;17.006;2024-02-21T03:41:52;100745.63;;;9.39;65.84
76819;BME280;65772;51.096;17.006;2024-02-21T03:44:23;100742.32;;;9.38;65.78
76819;BME280;65772;51.096;17.006;2024-02-21T03:46:53;100741.77;;;9.37;65.87
76819;BME280;65772;51.096;17.006;2024-02-21T03:49:24;100739.91;;;9.37;65.46
76819;BME280;65772;51.096;17.006;2024-02-21T03:51:55;100738.96;;;9.38;65.70
76819;BME280;65772;51.096;17.006;2024-02-21T03:54:25;100737.34;;;9.40;65.83
76819;BME280;65772;51.096;17.006;2024-02-21T03:56:56;100739.48;;;9.43;65.49
76819;BME280;65772;51.096;17.006;2024-02-21T03:59:27;100738.17;;;9.45;65.51
76819;BME280;65772;51.096;17.006;2024-02-21T04:01:58;100737.86;;;9.45;65.17
76819;BME280;65772;51.096;17.006;2024-02-21T04:04:29;100741.19;;;9.47;65.40
76819;BME280;65772;51.096;17.006;2024-02-21T04:07:00;100738.37;;;9.49;65.08
76819;BME280;65772;51.096;17.006;2024-02-21T04:09:31;100733.91;;;9.48;65.53
76819;BME280;65772;51.096;17.006;2024-02-21T04:12:02;100732.01;;;9.48;65.12
76819;BME280;65772;51.096;17.006;2024-02-21T04:14:33;100726.65;;;9.46;65.14
76819;BME280;65772;51.096;17.006;2024-02-21T04:17:04;100725.36;;;9.44;64.77
76819;BME280;65772;51.096;17.006;2024-02-21T04:19:36;100725.13;;;9.42;64.94
76819;BME280;65772;51.096;17.006;2024-02-21T04:22:08;100720.32;;;9.41;64.90
76819;BME280;65772;51.096;17.006;2024-02-21T04:24:38;100716.79;;;9.38;64.67
76819;BME280;65772;51.096;17.006;2024-02-21T04:27:09;100714.52;;;9.37;64.79
76819;BME280;65772;51.096;17.006;2024-02-21T04:29:40;100712.80;;;9.37;65.01
76819;BME280;65772;51.096;17.006;2024-02-21T04:32:11;100709.53;;;9.36;64.48
76819;BME280;65772;51.096;17.006;2024-02-21T04:34:43;100707.34;;;9.36;64.55
76819;BME280;65772;51.096;17.006;2024-02-21T04:37:14;100706.52;;;9.37;64.83
76819;BME280;65772;51.096;17.006;2024-02-21T04:39:45;100703.14;;;9.38;64.79
76819;BME280;65772;51.096;17.006;2024-02-21T04:42:16;100706.79;;;9.39;64.53
76819;BME280;65772;51.096;17.006;2024-02-21T04:44:47;100702.88;;;9.40;64.47
76819;BME280;65772;51.096;17.006;2024-02-21T04:47:17;100699.18;;;9.41;64.65
76819;BME280;65772;51.096;17.006;2024-02-21T04:49:49;100693.45;;;9.43;64.31
76819;BME280;65772;51.096;17.006;2024-02-21T04:52:19;100693.29;;;9.43;64.71
76819;BME280;65772;51.096;17.006;2024-02-21T04:54:51;100694.30;;;9.42;64.29
76819;BME280;65772;51.096;17.006;2024-02-21T04:57:21;100693.16;;;9.44;64.05
76819;BME280;65772;51.096;17.006;2024-02-21T04:59:52;100697.79;;;9.45;64.23
76819;BME280;65772;51.096;17.006;2024-02-21T05:02:23;100696.40;;;9.44;63.94
76819;BME280;65772;51.096;17.006;2024-02-21T05:04:54;100688.33;;;9.42;63.71
76819;BME280;65772;51.096;17.006;2024-02-21T05:07:25;100682.52;;;9.41;63.80
76819;BME280;65772;51.096;17.006;2024-02-21T05:09:56;100678.91;;;9.41;63.82
76819;BME280;65772;51.096;17.006;2024-02-21T05:12:27;100676.91;;;9.38;63.75
76819;BME280;65772;51.096;17.006;2024-02-21T05:14:59;100679.09;;;9.33;63.63
76819;BME280;65772;51.096;17.006;2024-02-21T05:17:30;100678.42;;;9.34;63.82
76819;BME280;65772;51.096;17.006;2024-02-21T05:20:01;100677.89;;;9.32;63.76
76819;BME280;65772;51.096;17.006;2024-02-21T05:22:32;100678.41;;;9.33;63.79
76819;BME280;65772;51.096;17.006;2024-02-21T05:25:03;100678.00;;;9.31;63.51
76819;BME280;65772;51.096;17.006;2024-02-21T05:27:34;100677.13;;;9.30;63.64
76819;BME280;65772;51.096;17.006;2024-02-21T05:30:05;100678.39;;;9.28;63.60
76819;BME280;65772;51.096;17.006;2024-02-21T05:32:36;100671.71;;;9.27;63.50
76819;BME280;65772;51.096;17.006;2024-02-21T05:35:08;100672.83;;;9.29;63.56
76819;BME280;65772;51.096;17.006;2024-02-21T05:37:39;100670.59;;;9.29;63.30
76819;BME280;65772;51.096;17.006;2024-02-21T05:40:12;100667.70;;;9.29;63.05
76819;BME280;65772;51.096;17.006;2024-02-21T05:42:43;100669.35;;;9.32;63.32
76819;BME280;65772;51.096;17.006;2024-02-21T05:45:14;100666.69;;;9.34;63.35
76819;BME280;65772;51.096;17.006;2024-02-21T05:47:45;100662.83;;;9.36;63.35
76819;BME280;65772;51.096;17.006;2024-02-21T05:50:16;100667.90;;;9.38;62.90
76819;BME280;65772;51.096;17.006;2024-02-21T05:52:47;100666.75;;;9.39;62.98
76819;BME280;65772;51.096;17.006;2024-02-21T05:55:18;100660.23;;;9.38;63.26
76819;BME280;65772;51.096;17.006;2024-02-21T05:57:49;100658.02;;;9.38;63.01
76819;BME280;65772;51.096;17.006;2024-02-21T06:00:20;100655.55;;;9.37;62.81
76819;BME280;65772;51.096;17.006;2024-02-21T06:02:50;100657.73;;;9.36;63.07
76819;BME280;65772;51.096;17.006;2024-02-21T06:05:21;100656.75;;;9.37;63.10
76819;BME280;65772;51.096;17.006;2024-02-21T06:07:52;100658.52;;;9.38;63.37
76819;BME280;65772;51.096;17.006;2024-02-21T06:10:22;100658.67;;;9.38;62.86
76819;BME280;65772;51.096;17.006;2024-02-21T06:12:53;100663.58;;;9.37;62.91
76819;BME280;65772;51.096;17.006;2024-02-21T06:15:24;100659.49;;;9.37;62.84
76819;BME280;65772;51.096;17.006;2024-02-21T06:17:54;100660.61;;;9.39;62.66
76819;BME280;65772;51.096;17.006;2024-02-21T06:20:25;100661.67;;;9.40;62.67
76819;BME280;65772;51.096;17.006;2024-02-21T06:22:56;100659.20;;;9.38;62.54
76819;BME280;65772;51.096;17.006;2024-02-21T06:25:27;100659.30;;;9.36;62.83
76819;BME280;65772;51.096;17.006;2024-02-21T06:27:58;100660.60;;;9.35;62.87
76819;BME280;65772;51.096;17.006;2024-02-21T06:30:28;100655.15;;;9.35;63.01
76819;BME280;65772;51.096;17.006;2024-02-21T06:32:59;100653.41;;;9.38;63.06
76819;BME280;65772;51.096;17.006;2024-02-21T06:35:32;100651.77;;;9.40;62.62
76819;BME280;65772;51.096;17.006;2024-02-21T06:38:03;100655.04;;;9.40;62.76
76819;BME280;65772;51.096;17.006;2024-02-21T06:40:34;100650.99;;;9.42;62.71
76819;BME280;65772;51.096;17.006;2024-02-21T06:43:08;100654.30;;;9.44;62.49
76819;BME280;65772;51.096;17.006;2024-02-21T06:45:40;100655.42;;;9.46;62.35
76819;BME280;65772;51.096;17.006;2024-02-21T06:48:10;100655.76;;;9.46;62.53
76819;BME280;65772;51.096;17.006;2024-02-21T06:50:41;100657.00;;;9.47;62.53
76819;BME280;65772;51.096;17.006;2024-02-21T06:53:12;100653.35;;;9.50;62.45
76819;BME280;65772;51.096;17.006;2024-02-21T06:55:43;100654.64;;;9.52;62.57
76819;BME280;65772;51.096;17.006;2024-02-21T06:58:13;100653.21;;;9.55;62.59
76819;BME280;65772;51.096;17.006;2024-02-21T07:00:46;100657.91;;;9.58;62.37
76819;BME280;65772;51.096;17.006;2024-02-21T07:03:17;100651.46;;;9.59;62.30
76819;BME280;65772;51.096;17.006;2024-02-21T07:05:48;100652.42;;;9.57;62.46
76819;BME280;65772;51.096;17.006;2024-02-21T07:08:19;100653.77;;;9.56;62.60
76819;BME280;65772;51.096;17.006;2024-02-21T07:10:49;100654.27;;;9.57;62.68
76819;BME280;65772;51.096;17.006;2024-02-21T07:13:20;100655.46;;;9.60;62.49
76819;BME280;65772;51.096;17.006;2024-02-21T07:15:52;100651.83;;;9.63;62.58
76819;BME280;65772;51.096;17.006;2024-02-21T07:18:23;100650.91;;;9.67;62.91
76819;BME280;65772;51.096;17.006;2024-02-21T07:20:54;100649.30;;;9.69;62.52
76819;BME280;65772;51.096;17.006;2024-02-21T07:23:26;100650.56;;;9.71;62.78
76819;BME280;65772;51.096;17.006;2024-02-21T07:25:56;100647.70;;;9.72;63.07
76819;BME280;65772;51.096;17.006;2024-02-21T07:28:27;100644.88;;;9.73;62.91
76819;BME280;65772;51.096;17.006;2024-02-21T07:31:00;100646.15;;;9.76;63.41
76819;BME280;65772;51.096;17.006;2024-02-21T07:33:30;100642.81;;;9.78;63.14
76819;BME280;65772;51.096;17.006;2024-02-21T07:36:05;100639.89;;;9.81;63.54
76819;BME280;65772;51.096;17.006;2024-02-21T07:38:35;100639.47;;;9.84;63.38
76819;BME280;65772;51.096;17.006;2024-02-21T07:41:06;100636.95;;;9.85;63.74
76819;BME280;65772;51.096;17.006;2024-02-21T07:43:37;100638.65;;;9.85;63.93
76819;BME280;65772;51.096;17.006;2024-02-21T07:46:07;100635.77;;;9.86;63.89
76819;BME280;65772;51.096;17.006;2024-02-21T07:48:38;100634.86;;;9.88;64.00
76819;BME280;65772;51.096;17.006;2024-02-21T07:51:09;100633.17;;;9.89;63.97
76819;BME280;65772;51.096;17.006;2024-02-21T07:53:39;100628.80;;;9.91;64.07
76819;BME280;65772;51.096;17.006;2024-02-21T07:56:14;100628.37;;;9.93;64.01
76819;BME280;65772;51.096;17.006;2024-02-21T07:58:45;100621.37;;;9.92;64.00
76819;BME280;65772;51.096;17.006;2024-02-21T08:01:20;100618.60;;;9.91;63.92
76819;BME280;65772;51.096;17.006;2024-02-21T08:03:51;100617.38;;;9.86;63.99
76819;BME280;65772;51.096;17.006;2024-02-21T08:06:22;100614.11;;;9.85;64.01
76819;BME280;65772;51.096;17.006;2024-02-21T08:08:53;100613.03;;;9.83;64.10
76819;BME280;65772;51.096;17.006;2024-02-21T08:11:24;100612.22;;;9.84;64.29
76819;BME280;65772;51.096;17.006;2024-02-21T08:13:54;100610.89;;;9.86;64.02
76819;BME280;65772;51.096;17.006;2024-02-21T08:16:25;100609.23;;;9.87;64.42
76819;BME280;65772;51.096;17.006;2024-02-21T08:18:57;100607.42;;;9.89;63.68
76819;BME280;65772;51.096;17.006;2024-02-21T08:21:29;100608.80;;;9.94;64.09
76819;BME280;65772;51.096;17.006;2024-02-21T08:24:00;100609.45;;;9.98;63.57
76819;BME280;65772;51.096;17.006;2024-02-21T08:26:31;100605.52;;;10.02;63.75
76819;BME280;65772;51.096;17.006;2024-02-21T08:29:02;100604.96;;;10.05;63.46
76819;BME280;65772;51.096;17.006;2024-02-21T08:31:32;100601.62;;;10.08;63.34
76819;BME280;65772;51.096;17.006;2024-02-21T08:34:04;100599.82;;;10.10;63.28
76819;BME280;65772;51.096;17.006;2024-02-21T08:36:35;100599.54;;;10.12;63.57
76819;BME280;65772;51.096;17.006;2024-02-21T08:39:06;100597.09;;;10.14;63.56
76819;BME280;65772;51.096;17.006;2024-02-21T08:41:39;100599.04;;;10.16;63.41
76819;BME280;65772;51.096;17.006;2024-02-21T08:44:28;100598.14;;;10.20;63.47
76819;BME280;65772;51.096;17.006;2024-02-21T08:46:59;100590.72;;;10.22;63.60
76819;BME280;65772;51.096;17.006;2024-02-21T08:49:33;100595.09;;;10.20;63.22
76819;BME280;65772;51.096;17.006;2024-02-21T08:52:05;100596.88;;;10.18;63.03
76819;BME280;65772;51.096;17.006;2024-02-21T08:54:36;100595.42;;;10.16;62.96
76819;BME280;65772;51.096;17.006;2024-02-21T08:57:06;100597.42;;;10.14;63.25
76819;BME280;65772;51.096;17.006;2024-02-21T08:59:37;100590.03;;;10.13;62.95
76819;BME280;65772;51.096;17.006;2024-02-21T09:02:08;100594.47;;;10.13;63.10
76819;BME280;65772;51.096;17.006;2024-02-21T09:04:38;100596.91;;;10.14;63.21
76819;BME280;65772;51.096;17.006;2024-02-21T09:07:09;100591.98;;;10.15;63.17
76819;BME280;65772;51.096;17.006;2024-02-21T09:09:40;100587.90;;;10.15;63.19
76819;BME280;65772;51.096;17.006;2024-02-21T09:12:11;100580.99;;;10.18;63.46
76819;BME280;65772;51.096;17.006;2024-02-21T09:14:44;100581.52;;;10.22;63.42
76819;BME280;65772;51.096;17.006;2024-02-21T09:17:18;100579.42;;;10.26;63.25
76819;BME280;65772;51.096;17.006;2024-02-21T09:19:50;100577.34;;;10.31;63.11
76819;BME280;65772;51.096;17.006;2024-02-21T09:22:20;100576.56;;;10.32;63.41
76819;BME280;65772;51.096;17.006;2024-02-21T09:24:51;100577.11;;;10.34;62.96
76819;BME280;65772;51.096;17.006;2024-02-21T09:27:22;100581.00;;;10.33;62.86
76819;BME280;65772;51.096;17.006;2024-02-21T09:29:52;100577.05;;;10.32;62.86
76819;BME280;65772;51.096;17.006;2024-02-21T09:32:24;100579.85;;;10.34;62.95
76819;BME280;65772;51.096;17.006;2024-02-21T09:34:54;100577.67;;;10.35;63.09
76819;BME280;65772;51.096;17.006;2024-02-21T09:37:30;100578.54;;;10.35;62.84
76819;BME280;65772;51.096;17.006;2024-02-21T09:40:01;100578.77;;;10.37;63.15
76819;BME280;65772;51.096;17.006;2024-02-21T09:42:38;100574.58;;;10.40;63.55
76819;BME280;65772;51.096;17.006;2024-02-21T09:45:18;100575.31;;;10.41;63.19
76819;BME280;65772;51.096;17.006;2024-02-21T09:48:02;100570.39;;;10.42;63.08
76819;BME280;65772;51.096;17.006;2024-02-21T09:50:38;100560.61;;;10.45;63.26
76819;BME280;65772;51.096;17.006;2024-02-21T09:53:13;100557.15;;;10.49;63.05
76819;BME280;65772;51.096;17.006;2024-02-21T09:55:46;100557.21;;;10.51;62.97
76819;BME280;65772;51.096;17.006;2024-02-21T09:58:17;100565.09;;;10.52;62.63
76819;BME280;65772;51.096;17.006;2024-02-21T10:00:48;100567.66;;;10.52;62.42
76819;BME280;65772;51.096;17.006;2024-02-21T10:03:18;100563.48;;;10.54;62.71
76819;BME280;65772;51.096;17.006;2024-02-21T10:05:50;100569.41;;;10.57;62.84
76819;BME280;65772;51.096;17.006;2024-02-21T10:08:20;100564.73;;;10.61;62.49
76819;BME280;65772;51.096;17.006;2024-02-21T10:10:51;100566.98;;;10.62;62.58
76819;BME280;65772;51.096;17.006;2024-02-21T10:13:28;100566.94;;;10.61;62.43
76819;BME280;65772;51.096;17.006;2024-02-21T10:16:07;100568.77;;;10.59;62.44
76819;BME280;65772;51.096;17.006;2024-02-21T10:18:38;100571.13;;;10.58;62.49
76819;BME280;65772;51.096;17.006;2024-02-21T10:21:10;100573.56;;;10.54;62.25
76819;BME280;65772;51.096;17.006;2024-02-21T10:23:45;100574.05;;;10.54;62.41
76819;BME280;65772;51.096;17.006;2024-02-21T10:26:17;100568.89;;;10.52;62.49
76819;BME280;65772;51.096;17.006;2024-02-21T10:28:48;100567.79;;;10.51;62.27
76819;BME280;65772;51.096;17.006;2024-02-21T10:31:25;100565.23;;;10.51;62.40
76819;BME280;65772;51.096;17.006;2024-02-21T10:33:58;100573.88;;;10.54;62.33
76819;BME280;65772;51.096;17.006;2024-02-21T10:36:32;100571.76;;;10.56;62.25
76819;BME280;65772;51.096;17.006;2024-02-21T10:39:03;100570.48;;;10.59;62.52
76819;BME280;65772;51.096;17.006;2024-02-21T10:41:34;100566.52;;;10.63;62.65
76819;BME280;65772;51.096;17.006;2024-02-21T10:44:10;100559.14;;;10.68;62.44
76819;BME280;65772;51.096;17.006;2024-02-21T10:46:43;100551.50;;;10.69;62.52
76819;BME280;65772;51.096;17.006;2024-02-21T10:49:19;100545.38;;;10.70;62.80
76819;BME280;65772;51.096;17.006;2024-02-21T10:52:08;100540.49;;;10.72;62.85
76819;BME280;65772;51.096;17.006;2024-02-21T10:54:50;100535.13;;;10.75;62.78
76819;BME280;65772;51.096;17.006;2024-02-21T10:57:24;100527.39;;;10.78;62.77
76819;BME280;65772;51.096;17.006;2024-02-21T10:59:59;100520.80;;;10.81;62.92
76819;BME280;65772;51.096;17.006;2024-02-21T11:02:34;100516.30;;;10.85;62.67
76819;BME280;65772;51.096;17.006;2024-02-21T11:05:06;100516.31;;;10.85;62.76
76819;BME280;65772;51.096;17.006;2024-02-21T11:07:39;100517.86;;;10.85;62.63
76819;BME280;65772;51.096;17.006;2024-02-21T11:10:24;100514.80;;;10.86;62.59
76819;BME280;65772;51.096;17.006;2024-02-21T11:13:06;100508.11;;;10.85;62.38
76819;BME280;65772;51.096;17.006;2024-02-21T11:15:38;100507.39;;;10.84;62.17
76819;BME280;65772;51.096;17.006;2024-02-21T11:18:09;100509.64;;;10.84;62.05
76819;BME280;65772;51.096;17.006;2024-02-21T11:20:40;100502.63;;;10.84;62.25
76819;BME280;65772;51.096;17.006;2024-02-21T11:23:10;100501.27;;;10.84;62.24
76819;BME280;65772;51.096;17.006;2024-02-21T11:25:42;100497.86;;;10.84;62.17
76819;BME280;65772;51.096;17.006;2024-02-21T11:28:12;100494.17;;;10.87;62.33
76819;BME280;65772;51.096;17.006;2024-02-21T11:30:43;100494.37;;;10.87;61.98
76819;BME280;65772;51.096;17.006;2024-02-21T11:33:14;100485.01;;;10.88;62.10
76819;BME280;65772;51.096;17.006;2024-02-21T11:35:47;100471.23;;;10.90;62.29
76819;BME280;65772;51.096;17.006;2024-02-21T11:38:18;100467.56;;;10.93;62.03
76819;BME280;65772;51.096;17.006;2024-02-21T11:40:52;100466.98;;;10.97;62.13
76819;BME280;65772;51.096;17.006;2024-02-21T11:43:23;100460.59;;;11.00;62.20
76819;BME280;65772;51.096;17.006;2024-02-21T11:46:00;100460.79;;;11.02;62.20
76819;BME280;65772;51.096;17.006;2024-02-21T11:48:33;100462.73;;;11.04;62.39
76819;BME280;65772;51.096;17.006;2024-02-21T11:51:04;100462.00;;;11.08;62.44
76819;BME280;65772;51.096;17.006;2024-02-21T11:53:35;100460.92;;;11.12;62.35
76819;BME280;65772;51.096;17.006;2024-02-21T11:56:16;100462.20;;;11.15;62.35
76819;BME280;65772;51.096;17.006;2024-02-21T11:58:47;100461.09;;;11.18;62.39
76819;BME280;65772;51.096;17.006;2024-02-21T12:01:18;100462.52;;;11.19;62.43
76819;BME280;65772;51.096;17.006;2024-02-21T12:03:49;100462.22;;;11.21;62.47
76819;BME280;65772;51.096;17.006;2024-02-21T12:06:20;100461.95;;;11.24;62.32
76819;BME280;65772;51.096;17.006;2024-02-21T12:08:51;100458.23;;;11.26;62.19
76819;BME280;65772;51.096;17.006;2024-02-21T12:11:24;100449.70;;;11.26;62.29
76819;BME280;65772;51.096;17.006;2024-02-21T12:14:04;100444.80;;;11.28;62.14
76819;BME280;65772;51.096;17.006;2024-02-21T12:16:35;100434.09;;;11.30;62.15
76819;BME280;65772;51.096;17.006;2024-02-21T12:19:07;100419.94;;;11.31;62.26
76819;BME280;65772;51.096;17.006;2024-02-21T12:21:38;100416.35;;;11.31;62.22
76819;BME280;65772;51.096;17.006;2024-02-21T12:24:17;100414.67;;;11.32;62.39
76819;BME280;65772;51.096;17.006;2024-02-21T12:26:49;100414.14;;;11.31;62.28
76819;BME280;65772;51.096;17.006;2024-02-21T12:29:22;100412.44;;;11.31;62.12
76819;BME280;65772;51.096;17.006;2024-02-21T12:31:54;100408.17;;;11.31;62.01
76819;BME280;65772;51.096;17.006;2024-02-21T12:34:25;100409.73;;;11.32;62.00
76819;BME280;65772;51.096;17.006;2024-02-21T12:37:13;100408.31;;;11.31;61.30
76819;BME280;65772;51.096;17.006;2024-02-21T12:39:45;100403.66;;;11.29;60.83
76819;BME280;65772;51.096;17.006;2024-02-21T12:42:15;100401.44;;;11.29;60.70
76819;BME280;65772;51.096;17.006;2024-02-21T12:44:47;100397.81;;;11.28;60.15
76819;BME280;65772;51.096;17.006;2024-02-21T12:47:18;100393.80;;;11.26;59.93
76819;BME280;65772;51.096;17.006;2024-02-21T12:49:53;100388.80;;;11.24;59.92
76819;BME280;65772;51.096;17.006;2024-02-21T12:52:23;100385.20;;;11.24;59.87
76819;BME280;65772;51.096;17.006;2024-02-21T12:54:54;100381.27;;;11.24;59.80
76819;BME280;65772;51.096;17.006;2024-02-21T12:57:28;100373.58;;;11.23;59.76
76819;BME280;65772;51.096;17.006;2024-02-21T12:59:59;100370.33;;;11.22;59.72
76819;BME280;65772;51.096;17.006;2024-02-21T13:02:29;100363.48;;;11.22;59.54
76819;BME280;65772;51.096;17.006;2024-02-21T13:05:00;100366.19;;;11.21;59.61
76819;BME280;65772;51.096;17.006;2024-02-21T13:07:32;100362.23;;;11.20;59.62
76819;BME280;65772;51.096;17.006;2024-02-21T13:10:03;100359.83;;;11.20;59.65